Sandanski, Bulgaria
Current Conditions -  °F | °C
As of 5:20 AM on Friday 21 Nov 2014 (Local Time) from LGTS Reporting Station
Few Clouds Few Clouds  
Wind Chill: 52°   Ceiling: Unl
Heat Index: 52°   Visibility: 6mi
Dew Point: 37°   Wind: 15mph
Humidity: 58%   Direction: 340°NNW
Pressure: 30.09"   Gusts: NA
Location:  41.56°N, 23.29°E
Report Text: LGTS 210220Z 34013KT 9999 FEW030 11/03 Q1019 NOSIG
Loading
Personal Weather Stations






























Interactive Weather Map New forecast layout! Learn more

10-Day Weather Forecast

Advertisements
Track Severe Weather on mobile